Time;durP1;ratioP1;P1;durP2;ratioP2;P2;SDS_P1;SDS_P2;PMS_P1;PMS_P2;Temp;Humidity;BMP_temperature;BMP_pressure;BME280_temperature;BME280_humidity;BME280_pressure;Samples;Min_cycle;Max_cycle;Signal;HPM_P1;HPM_P2
2023/04/26 00:01:29;;;;;;;3.00;1.73;;;11.70;70.90;;;;;;2527056;54;21496;-72
2023/04/26 00:03:56;;;;;;;3.65;1.73;;;11.70;70.70;;;;;;2548249;54;20944;-72
2023/04/26 00:06:22;;;;;;;2.92;1.60;;;11.70;70.50;;;;;;2550833;54;20984;-73
2023/04/26 00:08:50;;;;;;;2.47;1.20;;;11.60;70.40;;;;;;2552204;54;20950;-72
2023/04/26 00:11:16;;;;;;;2.47;1.40;;;11.60;70.40;;;;;;2311580;55;21007;-72
2023/04/26 00:13:42;;;;;;;3.28;1.50;;;11.60;70.50;;;;;;2552186;54;21927;-73
2023/04/26 00:16:08;;;;;;;4.43;1.75;;;11.60;70.60;;;;;;2551687;54;20936;-72
2023/04/26 00:18:35;;;;;;;2.92;1.40;;;11.50;70.50;;;;;;2533445;54;21004;-74
2023/04/26 00:21:01;;;;;;;3.00;1.52;;;11.50;70.60;;;;;;2542592;54;21761;-70
2023/04/26 00:23:27;;;;;;;3.65;2.25;;;11.50;70.70;;;;;;2550738;54;21019;-73
2023/04/26 00:25:56;;;;;;;3.87;1.80;;;11.50;70.80;;;;;;2312276;55;20952;-74
2023/04/26 00:28:22;;;;;;;2.70;1.42;;;11.50;70.90;;;;;;2550585;54;21342;-72
2023/04/26 00:30:50;;;;;;;2.67;1.37;;;11.40;70.90;;;;;;2524569;54;21828;-73
2023/04/26 00:33:16;;;;;;;2.83;1.60;;;11.40;70.90;;;;;;2310674;55;21019;-72
2023/04/26 00:35:42;;;;;;;3.45;1.80;;;11.40;70.80;;;;;;2311810;55;21003;-71
2023/04/26 00:38:08;;;;;;;2.62;1.20;;;11.40;70.80;;;;;;2312918;55;20971;-75
2023/04/26 00:40:35;;;;;;;2.55;1.12;;;11.40;70.80;;;;;;2551152;54;21044;-74
2023/04/26 00:43:02;;;;;;;2.85;1.45;;;11.30;70.70;;;;;;2294530;55;20956;-73
2023/04/26 00:45:28;;;;;;;2.60;1.35;;;11.40;70.80;;;;;;2305277;55;20924;-73
2023/04/26 00:47:54;;;;;;;4.05;1.55;;;11.30;70.70;;;;;;2551717;54;21356;-73
2023/04/26 00:50:21;;;;;;;3.33;1.37;;;11.30;70.70;;;;;;2551561;54;21044;-72
2023/04/26 00:52:47;;;;;;;3.80;1.30;;;11.30;70.70;;;;;;2312176;55;20988;-75
2023/04/26 00:55:15;;;;;;;4.55;1.83;;;11.30;70.70;;;;;;2312029;55;21038;-73
2023/04/26 00:57:41;;;;;;;2.72;1.40;;;11.30;70.70;;;;;;2551223;54;21023;-74
2023/04/26 01:00:08;;;;;;;3.30;1.70;;;11.20;70.50;;;;;;2551880;54;20988;-75
2023/04/26 01:02:36;;;;;;;2.78;1.42;;;11.20;70.40;;;;;;2299843;55;20996;-72
2023/04/26 01:05:03;;;;;;;2.70;1.30;;;11.20;70.40;;;;;;2542427;54;20980;-73
2023/04/26 01:07:30;;;;;;;3.50;1.50;;;11.20;70.30;;;;;;2551060;54;20932;-73
2023/04/26 01:09:57;;;;;;;2.85;1.45;;;11.20;70.30;;;;;;2552284;54;20979;-71
2023/04/26 01:12:23;;;;;;;2.87;1.33;;;11.10;70.20;;;;;;2314341;55;20975;-74
2023/04/26 01:14:49;;;;;;;3.10;1.40;;;11.10;70.30;;;;;;2291363;55;20945;-71
2023/04/26 01:17:16;;;;;;;3.05;1.40;;;11.00;70.30;;;;;;2524890;54;20993;-71
2023/04/26 01:19:49;;;;;;;2.90;1.40;;;11.00;70.30;;;;;;2312199;55;20924;-73
2023/04/26 01:22:16;;;;;;;2.75;1.45;;;11.00;70.30;;;;;;2298548;55;21023;-71
2023/04/26 01:24:47;;;;;;;3.30;1.87;;;11.00;70.40;;;;;;2306764;55;21019;-72
2023/04/26 01:27:13;;;;;;;3.72;1.90;;;10.90;70.30;;;;;;2551591;54;21220;-70
2023/04/26 01:29:40;;;;;;;4.15;2.10;;;10.90;70.50;;;;;;2551215;54;21349;-72
2023/04/26 01:32:06;;;;;;;3.55;2.10;;;10.90;70.50;;;;;;2541105;54;20995;-75
2023/04/26 01:34:33;;;;;;;3.97;2.08;;;10.90;70.70;;;;;;2297768;55;21519;-74
2023/04/26 01:37:01;;;;;;;3.72;2.10;;;10.90;70.80;;;;;;2551902;54;20971;-72
2023/04/26 01:39:27;;;;;;;3.15;1.83;;;10.90;70.80;;;;;;2551565;54;20952;-74
2023/04/26 01:41:59;;;;;;;4.12;1.48;;;10.90;70.90;;;;;;2312428;55;20928;-75
2023/04/26 01:44:25;;;;;;;3.35;1.83;;;10.90;70.80;;;;;;2550854;54;21294;-72
2023/04/26 01:46:51;;;;;;;3.05;1.67;;;10.90;70.80;;;;;;2299881;55;21000;-73
2023/04/26 01:49:18;;;;;;;3.87;2.10;;;10.90;71.50;;;;;;2545288;54;21362;-74
2023/04/26 01:51:44;;;;;;;3.75;2.08;;;10.80;70.80;;;;;;2311882;55;20944;-74
2023/04/26 01:54:12;;;;;;;3.90;1.98;;;10.90;70.90;;;;;;2552115;54;20939;-74
2023/04/26 01:56:38;;;;;;;3.33;1.75;;;10.80;70.90;;;;;;2550941;54;20956;-72
2023/04/26 01:59:04;;;;;;;3.62;1.90;;;10.80;70.80;;;;;;2312142;55;21055;-73
2023/04/26 02:01:31;;;;;;;3.10;1.62;;;10.80;70.70;;;;;;2551133;54;20944;-75
2023/04/26 02:03:57;;;;;;;3.15;1.80;;;10.80;70.70;;;;;;2552366;54;21016;-74
2023/04/26 02:06:23;;;;;;;3.05;1.58;;;10.80;70.60;;;;;;2311551;55;20980;-74
2023/04/26 02:08:53;;;;;;;4.47;1.85;;;10.80;70.50;;;;;;2312386;55;21721;-73
2023/04/26 02:11:20;;;;;;;3.33;2.03;;;10.70;70.30;;;;;;2551939;54;20955;-70
2023/04/26 02:13:46;;;;;;;3.10;1.80;;;10.70;70.30;;;;;;2312183;55;21040;-74
2023/04/26 02:16:14;;;;;;;3.58;1.85;;;10.70;70.30;;;;;;2312519;55;20920;-71
2023/04/26 02:18:41;;;;;;;4.40;2.08;;;10.70;70.10;;;;;;2300459;55;21043;-73
2023/04/26 02:21:11;;;;;;;4.03;2.30;;;10.60;70.00;;;;;;2305215;55;21445;-72
2023/04/26 02:23:37;;;;;;;3.28;1.70;;;10.60;70.10;;;;;;2551494;54;21059;-70
2023/04/26 02:26:04;;;;;;;3.75;1.60;;;10.60;70.10;;;;;;2312487;55;21274;-71
2023/04/26 02:28:31;;;;;;;3.60;1.70;;;10.60;70.10;;;;;;2311656;55;20948;-74
2023/04/26 02:30:57;;;;;;;3.05;1.67;;;10.50;70.00;;;;;;2312053;55;20991;-73
2023/04/26 02:33:23;;;;;;;3.03;1.70;;;10.50;70.10;;;;;;2311844;55;21075;-72
2023/04/26 02:35:50;;;;;;;3.50;1.90;;;10.50;70.10;;;;;;2313361;55;21232;-74
2023/04/26 02:38:16;;;;;;;2.92;1.67;;;10.50;70.20;;;;;;2294768;55;20976;-71
2023/04/26 02:40:44;;;;;;;3.55;1.90;;;10.40;70.10;;;;;;2548435;54;21533;-72
2023/04/26 02:43:10;;;;;;;4.75;2.40;;;10.40;70.20;;;;;;2550696;54;21464;-73
2023/04/26 02:45:41;;;;;;;3.87;2.37;;;10.40;70.40;;;;;;2311226;55;20999;-72
2023/04/26 02:48:08;;;;;;;4.15;2.42;;;10.40;70.40;;;;;;2551330;54;21436;-74
2023/04/26 02:50:35;;;;;;;4.18;2.40;;;10.40;70.60;;;;;;2311270;55;20956;-70
2023/04/26 02:53:02;;;;;;;4.90;1.90;;;10.30;70.60;;;;;;2296836;55;20952;-75
2023/04/26 02:55:28;;;;;;;4.55;2.08;;;10.30;70.70;;;;;;2298675;55;20992;-75
2023/04/26 02:57:57;;;;;;;4.32;1.98;;;10.30;70.80;;;;;;2539952;54;20979;-73
2023/04/26 03:00:25;;;;;;;3.65;2.03;;;10.40;70.90;;;;;;2551119;54;20939;-72
2023/04/26 03:02:51;;;;;;;2.97;1.77;;;10.40;71.00;;;;;;2552514;54;20936;-71
2023/04/26 03:05:18;;;;;;;3.70;2.00;;;10.40;71.10;;;;;;2311928;55;21369;-71
2023/04/26 03:07:46;;;;;;;3.70;2.05;;;10.40;71.20;;;;;;2551700;54;21015;-73
2023/04/26 03:10:14;;;;;;;4.10;2.25;;;10.40;71.20;;;;;;2311797;55;20932;-72
2023/04/26 03:12:41;;;;;;;4.25;2.17;;;10.40;71.30;;;;;;2311828;55;20932;-75
2023/04/26 03:15:07;;;;;;;3.25;1.48;;;10.40;71.40;;;;;;2551952;54;20976;-73
2023/04/26 03:17:34;;;;;;;4.15;2.17;;;10.40;71.40;;;;;;2551091;54;20984;-71
2023/04/26 03:20:07;;;;;;;4.57;2.65;;;10.40;71.40;;;;;;2312161;55;20920;-72
2023/04/26 03:22:33;;;;;;;3.72;2.12;;;10.50;71.60;;;;;;2311237;55;21004;-71
2023/04/26 03:24:59;;;;;;;4.97;2.70;;;10.50;71.70;;;;;;2311495;55;20927;-73
2023/04/26 03:27:26;;;;;;;4.32;2.50;;;10.50;71.70;;;;;;2551155;54;20971;-73
2023/04/26 03:29:52;;;;;;;4.78;3.00;;;10.50;71.70;;;;;;2312574;55;20960;-71
2023/04/26 03:32:18;;;;;;;5.00;2.80;;;10.50;71.70;;;;;;2551997;54;21316;-72
2023/04/26 03:34:47;;;;;;;4.97;3.05;;;10.60;71.90;;;;;;2547882;54;21031;-71
2023/04/26 03:37:13;;;;;;;5.97;3.10;;;10.60;71.90;;;;;;2293233;55;21367;-72
2023/04/26 03:39:40;;;;;;;4.80;2.62;;;10.60;71.90;;;;;;2300361;55;21055;-74
2023/04/26 03:42:07;;;;;;;4.95;3.00;;;10.60;71.90;;;;;;2290537;55;20965;-70
2023/04/26 03:44:34;;;;;;;6.22;2.80;;;10.60;71.90;;;;;;2301926;55;21083;-72
2023/04/26 03:47:04;;;;;;;4.70;2.90;;;10.70;72.10;;;;;;2540072;54;20980;-73
2023/04/26 03:49:31;;;;;;;5.28;3.10;;;10.70;72.00;;;;;;2550631;54;21003;-72
2023/04/26 03:51:57;;;;;;;5.00;3.08;;;10.70;72.00;;;;;;2551898;54;21019;-75
2023/04/26 03:54:23;;;;;;;5.70;3.40;;;10.70;71.90;;;;;;2311872;55;20956;-75
2023/04/26 03:56:50;;;;;;;5.95;3.47;;;10.70;72.60;;;;;;2311700;55;21437;-73
2023/04/26 03:59:16;;;;;;;6.65;3.97;;;10.80;72.10;;;;;;2551188;54;22214;-72
2023/04/26 04:01:43;;;;;;;5.18;2.97;;;10.80;72.10;;;;;;2549149;54;21074;-72
2023/04/26 04:04:10;;;;;;;6.43;3.47;;;10.90;72.20;;;;;;2551835;54;20936;-73
2023/04/26 04:06:37;;;;;;;5.70;3.58;;;10.80;72.10;;;;;;2533295;54;21028;-72
2023/04/26 04:09:06;;;;;;;5.87;3.60;;;10.90;72.10;;;;;;2539982;54;20936;-70
2023/04/26 04:11:32;;;;;;;7.10;4.30;;;10.90;72.10;;;;;;2550045;54;21012;-73
2023/04/26 04:13:59;;;;;;;9.32;3.97;;;10.90;72.10;;;;;;2551082;54;21424;-73
2023/04/26 04:16:25;;;;;;;7.68;4.62;;;10.90;72.10;;;;;;2311041;55;20967;-74
2023/04/26 04:18:52;;;;;;;5.53;3.45;;;10.90;72.10;;;;;;2551497;54;21333;-70
2023/04/26 04:21:18;;;;;;;6.32;3.53;;;10.90;72.10;;;;;;2551929;54;21047;-72
2023/04/26 04:23:45;;;;;;;5.82;3.65;;;10.90;72.00;;;;;;2551380;54;20940;-72
2023/04/26 04:26:11;;;;;;;6.28;3.00;;;11.00;72.10;;;;;;2550251;54;20958;-75
2023/04/26 04:28:41;;;;;;;5.78;3.12;;;11.00;72.10;;;;;;2310996;55;21043;-75
2023/04/26 04:31:10;;;;;;;6.05;3.55;;;11.00;72.10;;;;;;2311690;55;21437;-74
2023/04/26 04:33:36;;;;;;;9.07;4.18;;;11.00;72.10;;;;;;2311535;55;20975;-71
2023/04/26 04:36:03;;;;;;;7.80;4.30;;;11.00;72.00;;;;;;2536438;54;21107;-74
2023/04/26 04:38:29;;;;;;;7.62;4.53;;;11.00;71.90;;;;;;2538846;54;20959;-72
2023/04/26 04:40:55;;;;;;;8.95;4.87;;;11.10;72.00;;;;;;2551948;54;21012;-75
2023/04/26 04:43:22;;;;;;;7.93;4.32;;;11.10;71.90;;;;;;2312270;55;21924;-72
2023/04/26 04:45:48;;;;;;;8.40;5.07;;;11.10;71.90;;;;;;2551144;54;21035;-74
2023/04/26 04:48:19;;;;;;;7.25;4.35;;;11.10;72.00;;;;;;2312252;55;21007;-75
2023/04/26 04:50:45;;;;;;;8.60;4.95;;;11.10;71.90;;;;;;2551366;54;21008;-71
2023/04/26 04:53:12;;;;;;;8.85;5.05;;;11.10;72.00;;;;;;2311876;55;21936;-72
2023/04/26 04:55:38;;;;;;;6.12;3.60;;;11.10;71.90;;;;;;2551204;54;21019;-71
2023/04/26 04:58:05;;;;;;;8.30;4.80;;;11.10;71.90;;;;;;2551055;54;21011;-74
2023/04/26 05:00:35;;;;;;;7.80;4.68;;;11.10;72.00;;;;;;2545483;54;21051;-71
2023/04/26 05:03:01;;;;;;;6.80;4.50;;;11.10;72.00;;;;;;2519455;54;20927;-73
2023/04/26 05:05:27;;;;;;;7.15;4.37;;;11.10;72.10;;;;;;2301041;55;20951;-73
2023/04/26 05:07:54;;;;;;;8.32;4.22;;;11.10;72.20;;;;;;2551686;54;21012;-74
2023/04/26 05:10:20;;;;;;;8.82;4.87;;;11.20;72.30;;;;;;2551432;54;21012;-74
2023/04/26 05:12:47;;;;;;;6.93;4.35;;;11.20;72.40;;;;;;2540045;54;20978;-72
2023/04/26 05:15:13;;;;;;;6.95;4.45;;;11.20;72.50;;;;;;2535229;54;21007;-74
2023/04/26 05:17:40;;;;;;;6.87;4.07;;;11.20;72.60;;;;;;2550814;54;20941;-76
2023/04/26 05:20:07;;;;;;;8.35;4.32;;;11.20;72.50;;;;;;2311564;55;20951;-72
2023/04/26 05:22:35;;;;;;;6.93;3.85;;;11.30;72.60;;;;;;2550628;54;20948;-75
2023/04/26 05:25:03;;;;;;;6.32;3.92;;;11.30;72.60;;;;;;2298669;55;20971;-71
2023/04/26 05:27:29;;;;;;;7.93;4.40;;;11.30;72.40;;;;;;2544782;54;20992;-71
2023/04/26 05:29:56;;;;;;;7.20;4.55;;;11.30;72.30;;;;;;2310863;55;20972;-73
2023/04/26 05:32:22;;;;;;;5.62;3.42;;;11.30;72.20;;;;;;2530672;54;21039;-73
2023/04/26 05:34:48;;;;;;;5.97;3.72;;;11.30;72.20;;;;;;2551259;54;20943;-71
2023/04/26 05:37:16;;;;;;;6.03;3.58;;;11.30;72.20;;;;;;2528012;54;21507;-75
2023/04/26 05:39:42;;;;;;;6.55;3.62;;;11.30;72.20;;;;;;2308493;55;21011;-72
2023/04/26 05:42:09;;;;;;;9.57;4.20;;;11.40;72.30;;;;;;2529672;54;21004;-74
2023/04/26 05:44:35;;;;;;;6.25;3.75;;;11.40;72.30;;;;;;2545368;54;21015;-73
2023/04/26 05:47:01;;;;;;;6.15;3.75;;;11.40;72.30;;;;;;2525671;54;20908;-73
2023/04/26 05:49:29;;;;;;;6.68;4.10;;;11.40;72.20;;;;;;2551949;54;20928;-73
2023/04/26 05:52:03;;;;;;;6.70;4.05;;;11.40;72.20;;;;;;2551314;54;20961;-73
2023/04/26 05:54:29;;;;;;;6.70;3.50;;;11.50;72.20;;;;;;2550784;54;21763;-75
2023/04/26 05:56:55;;;;;;;6.10;3.75;;;11.40;72.10;;;;;;2312365;55;21789;-76
2023/04/26 05:59:23;;;;;;;5.78;3.72;;;11.40;72.20;;;;;;2551429;54;20944;-75
2023/04/26 06:01:53;;;;;;;6.97;4.05;;;11.50;72.30;;;;;;2312338;55;20986;-73
2023/04/26 06:04:19;;;;;;;6.87;3.80;;;11.50;72.40;;;;;;2295782;55;20975;-73
2023/04/26 06:06:45;;;;;;;6.22;3.95;;;11.50;72.50;;;;;;2547280;54;20979;-72
2023/04/26 06:09:11;;;;;;;7.25;4.10;;;11.50;72.50;;;;;;2542515;54;21545;-72
2023/04/26 06:11:38;;;;;;;6.07;3.78;;;11.50;72.60;;;;;;2296068;55;21856;-75
2023/04/26 06:14:04;;;;;;;5.93;3.53;;;11.50;72.60;;;;;;2550645;54;21067;-74
2023/04/26 06:16:31;;;;;;;6.93;3.97;;;11.50;72.60;;;;;;2529846;54;21135;-76
2023/04/26 06:18:57;;;;;;;5.75;3.60;;;11.60;72.80;;;;;;2311409;55;21477;-73
2023/04/26 06:21:24;;;;;;;8.40;4.85;;;11.60;72.90;;;;;;2551751;54;20955;-75
2023/04/26 06:23:50;;;;;;;6.87;4.20;;;11.60;72.90;;;;;;2312289;55;20936;-73
2023/04/26 06:26:16;;;;;;;8.18;4.85;;;11.70;73.00;;;;;;2292988;55;21016;-71
2023/04/26 06:28:42;;;;;;;7.80;4.32;;;11.70;73.00;;;;;;2311716;55;20992;-74
2023/04/26 06:31:09;;;;;;;6.82;4.15;;;11.60;72.90;;;;;;2552468;54;20964;-73
2023/04/26 06:33:36;;;;;;;8.20;4.55;;;11.80;73.10;;;;;;2551974;54;20955;-74
2023/04/26 06:36:03;;;;;;;7.87;4.68;;;11.80;73.10;;;;;;2551645;54;21008;-74
2023/04/26 06:38:29;;;;;;;6.68;4.68;;;11.80;73.10;;;;;;2294773;55;21095;-73
2023/04/26 06:40:56;;;;;;;5.97;4.07;;;11.90;73.10;;;;;;2309886;55;21425;-76
2023/04/26 06:43:22;;;;;;;7.87;5.20;;;11.90;73.20;;;;;;2551822;54;20948;-76
2023/04/26 06:45:48;;;;;;;7.53;4.53;;;11.90;73.30;;;;;;2550582;54;21008;-73
2023/04/26 06:48:14;;;;;;;6.95;4.35;;;12.00;73.40;;;;;;2551948;54;20944;-75
2023/04/26 06:50:43;;;;;;;6.30;3.92;;;12.00;73.30;;;;;;2311589;55;21764;-72
2023/04/26 06:53:13;;;;;;;5.65;3.70;;;12.00;73.30;;;;;;2311776;55;20960;-73
2023/04/26 06:55:40;;;;;;;5.78;3.87;;;12.10;73.30;;;;;;2524727;54;20980;-73
2023/04/26 06:58:07;;;;;;;6.00;4.07;;;12.10;73.20;;;;;;2550231;54;20947;-72
2023/04/26 07:00:33;;;;;;;6.45;4.03;;;12.20;73.20;;;;;;2551626;54;21055;-73
2023/04/26 07:02:59;;;;;;;6.72;3.33;;;12.20;73.00;;;;;;2311802;55;21421;-70
2023/04/26 07:05:26;;;;;;;6.80;4.62;;;12.20;73.70;;;;;;2551322;54;21456;-73
2023/04/26 07:07:53;;;;;;;9.55;3.58;;;12.20;73.10;;;;;;2551693;54;20948;-72
2023/04/26 07:10:20;;;;;;;4.80;3.22;;;12.30;73.30;;;;;;2551591;54;21311;-72
2023/04/26 07:12:46;;;;;;;5.15;3.37;;;12.30;73.30;;;;;;2551206;54;20939;-73
2023/04/26 07:15:13;;;;;;;5.50;3.65;;;12.30;73.30;;;;;;2312202;55;21050;-75
2023/04/26 07:17:40;;;;;;;7.90;4.10;;;12.40;74.20;;;;;;2311586;55;20959;-73
2023/04/26 07:20:09;;;;;;;6.70;4.28;;;12.40;73.40;;;;;;2549928;54;20948;-75
2023/04/26 07:22:35;;;;;;;6.87;4.07;;;12.40;73.30;;;;;;2311874;55;21726;-74
2023/04/26 07:25:01;;;;;;;8.35;4.50;;;12.50;73.30;;;;;;2550385;54;21921;-75
2023/04/26 07:27:28;;;;;;;6.57;4.03;;;12.50;73.30;;;;;;2310881;55;21698;-74
2023/04/26 07:29:55;;;;;;;5.78;3.92;;;12.50;73.20;;;;;;2311839;55;20991;-72
2023/04/26 07:32:21;;;;;;;6.95;4.15;;;12.60;73.20;;;;;;2311987;55;21776;-70
2023/04/26 07:34:47;;;;;;;6.97;4.18;;;12.60;73.30;;;;;;2518658;54;20982;-72
2023/04/26 07:37:14;;;;;;;6.20;4.03;;;12.60;73.00;;;;;;2285456;54;20923;-72
2023/04/26 07:39:40;;;;;;;6.47;4.70;;;12.60;72.80;;;;;;2285386;54;20954;-75
2023/04/26 07:42:09;;;;;;;6.75;4.35;;;12.70;72.90;;;;;;2519671;54;22054;-74
2023/04/26 07:44:36;;;;;;;8.45;5.18;;;12.70;72.90;;;;;;2285469;54;20966;-73
2023/04/26 07:47:02;;;;;;;5.40;3.60;;;12.70;72.80;;;;;;2285464;54;20962;-76
2023/04/26 07:49:29;;;;;;;7.53;4.57;;;12.70;72.70;;;;;;2519208;54;21049;-71
2023/04/26 07:51:57;;;;;;;6.57;4.65;;;12.70;72.80;;;;;;2518873;54;21496;-72
2023/04/26 07:54:23;;;;;;;7.05;4.70;;;12.70;72.70;;;;;;2519193;54;21538;-73
2023/04/26 07:56:49;;;;;;;6.80;4.22;;;12.80;72.70;;;;;;2285175;55;20958;-72
2023/04/26 07:59:17;;;;;;;6.37;4.25;;;12.80;72.70;;;;;;2284413;55;20975;-73
2023/04/26 08:01:43;;;;;;;5.22;3.78;;;12.80;72.80;;;;;;2517939;54;21938;-74
2023/04/26 08:04:09;;;;;;;4.95;3.50;;;12.80;72.80;;;;;;2536332;54;20944;-73
2023/04/26 08:06:37;;;;;;;11.50;3.85;;;12.90;72.90;;;;;;2312481;55;21415;-73
2023/04/26 08:09:04;;;;;;;6.30;4.47;;;12.90;73.10;;;;;;2312135;55;21855;-72
2023/04/26 08:11:31;;;;;;;6.47;4.12;;;12.90;73.50;;;;;;2551592;54;20936;-72
2023/04/26 08:13:58;;;;;;;5.20;3.47;;;13.00;73.80;;;;;;2551166;54;20955;-73
2023/04/26 08:16:25;;;;;;;6.53;3.95;;;13.00;73.90;;;;;;2550916;54;21035;-73
2023/04/26 08:18:54;;;;;;;6.70;4.57;;;13.10;74.00;;;;;;2524989;54;20999;-73
2023/04/26 08:21:20;;;;;;;5.85;4.32;;;13.20;74.00;;;;;;2552159;54;21801;-72
2023/04/26 08:23:47;;;;;;;6.57;3.70;;;13.20;73.80;;;;;;2312042;55;20964;-69
2023/04/26 08:26:13;;;;;;;7.32;4.30;;;13.30;73.80;;;;;;2551796;54;21027;-73
2023/04/26 08:28:39;;;;;;;5.65;3.67;;;13.30;73.60;;;;;;2524883;54;20960;-74
2023/04/26 08:31:06;;;;;;;6.25;4.12;;;13.30;73.70;;;;;;2551799;54;21011;-73
2023/04/26 08:33:32;;;;;;;6.22;4.45;;;13.40;73.90;;;;;;2552481;54;20947;-74
2023/04/26 08:36:00;;;;;;;5.55;3.65;;;13.40;73.60;;;;;;2551609;54;20940;-72
2023/04/26 08:38:28;;;;;;;6.03;4.18;;;13.50;73.40;;;;;;2552142;54;21543;-71
2023/04/26 08:40:54;;;;;;;5.75;4.30;;;13.50;73.10;;;;;;2552205;54;22385;-74
2023/04/26 08:43:20;;;;;;;5.75;4.03;;;13.50;73.00;;;;;;2312453;55;21003;-69
2023/04/26 08:45:47;;;;;;;5.87;3.95;;;13.60;73.20;;;;;;2551686;54;20978;-71
2023/04/26 08:48:16;;;;;;;6.05;3.92;;;13.70;73.30;;;;;;2552043;54;20960;-72
2023/04/26 08:50:46;;;;;;;4.90;3.25;;;13.70;73.30;;;;;;2311865;55;20984;-71
2023/04/26 08:53:16;;;;;;;8.63;4.68;;;13.70;73.20;;;;;;2310833;55;20987;-70
2023/04/26 08:55:48;;;;;;;6.45;4.53;;;13.80;73.20;;;;;;2312585;55;21016;-71
2023/04/26 08:58:16;;;;;;;6.93;4.00;;;13.80;73.30;;;;;;2521940;54;20995;-70
2023/04/26 09:00:44;;;;;;;7.05;4.57;;;13.90;73.70;;;;;;2538464;54;21060;-72
2023/04/26 09:03:13;;;;;;;9.07;5.43;;;13.90;73.90;;;;;;2297327;55;21023;-71
2023/04/26 09:05:43;;;;;;;6.20;4.47;;;14.00;74.00;;;;;;2524014;54;21018;-72
2023/04/26 09:08:09;;;;;;;6.47;4.60;;;14.00;73.80;;;;;;2553418;54;20956;-70
2023/04/26 09:10:35;;;;;;;9.60;5.25;;;14.10;73.80;;;;;;2552870;54;20944;-70
2023/04/26 09:13:02;;;;;;;7.35;4.53;;;14.10;73.50;;;;;;2312669;55;20956;-71
2023/04/26 09:15:29;;;;;;;7.12;5.18;;;14.20;73.50;;;;;;2552686;54;21452;-72
2023/04/26 09:17:55;;;;;;;6.57;4.53;;;14.20;73.60;;;;;;2552857;54;20927;-71
2023/04/26 09:20:28;;;;;;;6.90;4.82;;;14.30;73.80;;;;;;2313137;55;21745;-71
2023/04/26 09:23:05;;;;;;;8.43;5.18;;;14.40;73.60;;;;;;2312958;55;20968;-70
2023/04/26 09:25:34;;;;;;;6.95;5.12;;;14.40;73.20;;;;;;2312627;55;20932;-72
2023/04/26 09:28:01;;;;;;;7.25;5.00;;;14.50;73.50;;;;;;2545069;54;21470;-71
2023/04/26 09:30:27;;;;;;;8.10;4.97;;;14.50;73.30;;;;;;2291555;55;21801;-71
2023/04/26 09:32:57;;;;;;;6.47;4.35;;;14.50;73.10;;;;;;2313378;55;20904;-72
2023/04/26 09:35:29;;;;;;;7.05;5.07;;;14.60;72.90;;;;;;2313351;55;20959;-72
2023/04/26 09:38:16;;;;;;;7.93;5.28;;;14.60;72.80;;;;;;2317180;55;20948;-72
2023/04/26 09:40:46;;;;;;;7.37;4.95;;;14.70;73.10;;;;;;2312780;55;20994;-71
2023/04/26 09:43:14;;;;;;;7.25;5.40;;;14.70;72.90;;;;;;2552748;54;20964;-71
2023/04/26 09:45:53;;;;;;;6.72;4.90;;;14.80;73.00;;;;;;2535706;54;20968;-71
2023/04/26 09:48:24;;;;;;;6.97;4.80;;;14.80;72.60;;;;;;2302418;55;21305;-73
2023/04/26 09:50:52;;;;;;;7.15;4.53;;;14.80;72.90;;;;;;2301574;55;20976;-70
2023/04/26 09:53:30;;;;;;;7.80;4.93;;;14.90;73.10;;;;;;2312680;55;21855;-73
2023/04/26 09:56:19;;;;;;;6.93;4.65;;;14.90;72.50;;;;;;2552449;54;20999;-70
2023/04/26 09:59:00;;;;;;;6.72;4.55;;;14.90;73.00;;;;;;2312103;55;21004;-71
2023/04/26 10:01:28;;;;;;;6.18;4.37;;;15.00;72.70;;;;;;2552468;54;20907;-72
2023/04/26 10:03:56;;;;;;;6.53;4.28;;;15.00;73.30;;;;;;2312669;55;20952;-71
2023/04/26 10:06:24;;;;;;;7.62;4.60;;;15.10;73.50;;;;;;2552471;54;20976;-72
2023/04/26 10:08:50;;;;;;;7.00;4.35;;;15.20;73.30;;;;;;2552550;54;20923;-72
2023/04/26 10:11:17;;;;;;;7.03;4.60;;;15.30;73.10;;;;;;2312981;55;21925;-71
2023/04/26 10:13:43;;;;;;;7.93;5.30;;;15.20;72.90;;;;;;2552480;54;21044;-71
2023/04/26 10:16:10;;;;;;;8.05;6.00;;;15.20;73.10;;;;;;2552529;54;20919;-70
2023/04/26 10:18:36;;;;;;;8.63;5.10;;;15.30;73.30;;;;;;2294890;55;20959;-71
2023/04/26 10:21:18;;;;;;;7.05;4.55;;;15.30;73.20;;;;;;2552331;54;20940;-72
2023/04/26 10:23:46;;;;;;;7.10;4.50;;;15.40;72.90;;;;;;2313246;55;21003;-71
2023/04/26 10:26:58;;;;;;;6.68;4.45;;;15.40;73.50;;;;;;2311763;55;20991;-72
2023/04/26 10:29:25;;;;;;;7.60;5.07;;;15.50;72.50;;;;;;2287085;55;20991;-71
2023/04/26 10:32:08;;;;;;;7.22;4.72;;;15.60;73.80;;;;;;2285540;54;20994;-71
2023/04/26 10:34:37;;;;;;;6.40;4.20;;;15.60;72.80;;;;;;2286222;55;21761;-72
2023/04/26 10:37:16;;;;;;;7.97;4.18;;;15.60;73.40;;;;;;2520175;54;21043;-71
2023/04/26 10:39:43;;;;;;;6.28;4.65;;;15.70;72.70;;;;;;2520460;54;20980;-69
2023/04/26 10:42:23;;;;;;;8.15;5.22;;;15.60;73.20;;;;;;2519698;54;21083;-71
2023/04/26 10:44:51;;;;;;;7.03;4.62;;;15.80;72.50;;;;;;2519812;54;21765;-72
2023/04/26 10:47:30;;;;;;;6.20;4.40;;;15.90;73.40;;;;;;2519692;54;21206;-71
2023/04/26 10:50:09;;;;;;;5.75;4.15;;;15.90;73.20;;;;;;2519829;54;20956;-71
2023/04/26 10:56:17;;;;;;;5.95;3.85;;;15.90;72.70;;;;;;2285814;55;21019;-70
2023/04/26 10:58:46;;;;;;;5.22;3.28;;;16.00;72.40;;;;;;2285436;55;21056;-71
2023/04/26 11:01:21;;;;;;;5.43;3.87;;;16.10;72.60;;;;;;2518689;54;21079;-72
2023/04/26 11:04:50;;;;;;;7.07;4.57;;;16.10;71.80;;;;;;2286149;55;20952;-71
2023/04/26 11:07:36;;;;;;;5.85;4.03;;;16.20;70.80;;;;;;2519183;54;20967;-71
2023/04/26 11:10:04;;;;;;;7.05;4.43;;;16.20;70.90;;;;;;2519610;54;20980;-73
2023/04/26 11:12:34;;;;;;;6.50;4.20;;;16.20;72.00;;;;;;2519238;54;20980;-70
2023/04/26 11:15:05;;;;;;;5.80;4.25;;;16.20;71.90;;;;;;2515563;54;21038;-72
2023/04/26 11:17:36;;;;;;;6.82;4.87;;;16.20;71.90;;;;;;2497393;54;21484;-71
2023/04/26 11:20:08;;;;;;;7.18;4.68;;;16.30;71.40;;;;;;2525666;53;20974;-73
2023/04/26 11:22:38;;;;;;;;;;;16.20;71.40;;;;;;2523372;54;21640;-73
2023/04/26 11:25:08;;;;;;;5.03;3.42;;;16.30;70.10;;;;;;2551983;54;20072;-72
2023/04/26 11:27:35;;;;;;;6.78;4.80;;;16.30;71.60;;;;;;2288992;54;21960;-72
2023/04/26 11:30:05;;;;;;;5.97;3.85;;;16.30;71.40;;;;;;2286263;54;20922;-73
2023/04/26 11:32:32;;;;;;;5.47;3.80;;;16.30;71.30;;;;;;2519575;54;21009;-71
2023/04/26 11:35:01;;;;;;;6.50;4.57;;;16.30;71.70;;;;;;2519375;54;20964;-71
2023/04/26 11:37:29;;;;;;;9.45;5.18;;;16.40;71.70;;;;;;2520753;53;21027;-71
2023/04/26 11:39:56;;;;;;;6.22;4.18;;;16.50;72.30;;;;;;2520050;54;20930;-71
2023/04/26 11:42:26;;;;;;;6.43;3.85;;;16.50;72.50;;;;;;2285415;54;20954;-71
2023/04/26 11:44:55;;;;;;;5.57;3.72;;;16.50;72.20;;;;;;2519725;54;20942;-71
2023/04/26 11:47:22;;;;;;;5.53;3.65;;;16.60;72.50;;;;;;2519142;54;21579;-71
2023/04/26 11:49:48;;;;;;;5.18;3.47;;;16.60;72.20;;;;;;2290788;54;20975;-72
2023/04/26 11:52:17;;;;;;;5.72;3.83;;;16.70;72.00;;;;;;2513237;54;20954;-71
2023/04/26 11:54:47;;;;;;;6.15;3.83;;;16.80;71.60;;;;;;2517249;54;20978;-72
2023/04/26 11:57:15;;;;;;;6.07;3.58;;;16.80;71.30;;;;;;2285730;54;20978;-71
2023/04/26 11:59:42;;;;;;;4.47;3.42;;;16.80;71.20;;;;;;2519852;54;20943;-72
2023/04/26 12:02:11;;;;;;;5.20;3.30;;;16.90;71.40;;;;;;2519614;54;21018;-73
2023/04/26 12:04:39;;;;;;;4.43;3.08;;;16.90;71.80;;;;;;2520473;54;20942;-73
2023/04/26 12:07:06;;;;;;;5.82;3.15;;;17.00;72.00;;;;;;2519376;54;20922;-72
2023/04/26 12:09:32;;;;;;;5.45;3.17;;;17.00;72.00;;;;;;2286092;54;20971;-71
2023/04/26 12:12:05;;;;;;;5.32;3.90;;;17.10;72.00;;;;;;2519784;54;20970;-71
2023/04/26 12:14:38;;;;;;;5.60;3.65;;;17.20;71.20;;;;;;2520112;54;20934;-71
2023/04/26 12:17:05;;;;;;;5.47;3.55;;;17.20;72.00;;;;;;2519956;54;20910;-72
2023/04/26 12:19:38;;;;;;;4.25;2.97;;;17.30;72.20;;;;;;2519999;54;20970;-72
2023/04/26 12:22:05;;;;;;;6.00;3.85;;;17.30;72.10;;;;;;2519722;54;21434;-71
2023/04/26 12:24:36;;;;;;;5.07;3.00;;;17.40;72.40;;;;;;2517781;54;21025;-71
2023/04/26 12:27:03;;;;;;;5.70;2.50;;;17.50;72.50;;;;;;2283002;55;21019;-72
2023/04/26 12:29:32;;;;;;;5.32;3.00;;;17.60;72.60;;;;;;2282276;55;20962;-71
2023/04/26 12:31:58;;;;;;;5.22;3.08;;;17.70;71.10;;;;;;2518994;54;21030;-72
2023/04/26 12:34:25;;;;;;;5.40;3.47;;;17.70;70.50;;;;;;2543304;54;20960;-72
2023/04/26 12:36:52;;;;;;;4.30;2.67;;;17.80;70.10;;;;;;2551720;54;21103;-72
2023/04/26 12:39:18;;;;;;;4.70;2.50;;;17.80;70.10;;;;;;2551295;54;20959;-69
2023/04/26 12:41:45;;;;;;;5.03;2.60;;;17.90;70.00;;;;;;2551700;54;21000;-74
2023/04/26 12:44:16;;;;;;;4.70;2.67;;;17.80;69.80;;;;;;2311345;55;20928;-72
2023/04/26 12:46:42;;;;;;;5.05;2.75;;;17.90;69.60;;;;;;2311466;55;21032;-73
2023/04/26 12:49:08;;;;;;;4.78;2.75;;;17.90;69.60;;;;;;2311636;55;20912;-73
2023/04/26 12:51:39;;;;;;;3.83;1.98;;;17.90;69.80;;;;;;2312079;55;21055;-72
2023/04/26 12:54:05;;;;;;;3.90;2.33;;;17.90;69.70;;;;;;2525059;54;21000;-72
2023/04/26 12:56:32;;;;;;;4.65;2.10;;;17.90;69.80;;;;;;2299121;55;21003;-71